createdAt,value
2019-03-29T00:00:32.241Z,6.60
2019-03-29T00:01:11.646Z,6.50
2019-03-29T00:01:50.321Z,6.50
2019-03-29T00:02:29.300Z,6.60
2019-03-29T00:03:08.979Z,6.60
2019-03-29T00:03:47.504Z,6.60
2019-03-29T00:04:26.296Z,6.50
2019-03-29T00:05:04.330Z,6.50
2019-03-29T00:05:42.810Z,6.50
2019-03-29T00:06:21.138Z,6.50
2019-03-29T00:06:59.588Z,6.50
2019-03-29T00:07:39.775Z,6.50
2019-03-29T00:08:18.102Z,6.50
2019-03-29T00:08:56.479Z,6.50
2019-03-29T00:09:35.006Z,6.50
2019-03-29T00:10:13.348Z,6.50
2019-03-29T00:10:51.912Z,6.50
2019-03-29T00:11:29.781Z,6.50
2019-03-29T00:12:08.068Z,6.50
2019-03-29T00:12:45.934Z,6.50
2019-03-29T00:13:23.499Z,6.50
2019-03-29T00:14:01.471Z,6.50
2019-03-29T00:14:39.416Z,6.50
2019-03-29T00:15:17.862Z,6.50
2019-03-29T00:15:55.800Z,6.50
2019-03-29T00:16:34.096Z,6.50
2019-03-29T00:17:11.794Z,6.50
2019-03-29T00:17:49.374Z,6.50
2019-03-29T00:18:27.673Z,6.50
2019-03-29T00:19:05.891Z,6.50
2019-03-29T00:19:44.185Z,6.40
2019-03-29T00:20:22.492Z,6.50
2019-03-29T00:21:00.771Z,6.40
2019-03-29T00:21:39.185Z,6.40
2019-03-29T00:22:18.000Z,6.40
2019-03-29T00:22:56.325Z,6.40
2019-03-29T00:23:35.765Z,6.40
2019-03-29T00:24:14.956Z,6.40
2019-03-29T00:24:52.653Z,6.40
2019-03-29T00:25:30.804Z,6.40
2019-03-29T00:26:08.368Z,6.40
2019-03-29T00:26:46.948Z,6.40
2019-03-29T00:27:25.514Z,6.40
2019-03-29T00:28:03.515Z,6.40
2019-03-29T00:28:44.744Z,6.40
2019-03-29T00:29:22.929Z,6.40
2019-03-29T00:30:01.291Z,6.30
2019-03-29T00:30:39.328Z,6.30
2019-03-29T00:31:17.542Z,6.30
2019-03-29T00:31:55.615Z,6.30
2019-03-29T00:32:33.196Z,6.30
2019-03-29T00:33:11.392Z,6.30
2019-03-29T00:33:49.392Z,6.30
2019-03-29T00:34:28.338Z,6.30
2019-03-29T00:35:08.043Z,6.30
2019-03-29T00:35:46.528Z,6.30
2019-03-29T00:36:25.320Z,6.30
2019-03-29T00:37:04.296Z,6.30
2019-03-29T00:37:52.727Z,6.30
2019-03-29T00:38:22.351Z,6.30
2019-03-29T00:39:01.156Z,6.30
2019-03-29T00:39:39.218Z,6.30
2019-03-29T00:40:17.211Z,6.30
2019-03-29T00:40:55.506Z,6.20
2019-03-29T00:41:33.684Z,6.20
2019-03-29T00:42:12.224Z,6.20
2019-03-29T00:42:50.570Z,6.20
2019-03-29T00:43:28.598Z,6.20
2019-03-29T00:44:07.220Z,6.20
2019-03-29T00:44:45.548Z,6.20
2019-03-29T00:45:23.893Z,6.20
2019-03-29T00:46:02.190Z,6.20
2019-03-29T00:46:40.875Z,6.20
2019-03-29T00:47:19.104Z,6.20
2019-03-29T00:47:57.640Z,6.20
2019-03-29T00:48:36.152Z,6.20
2019-03-29T00:49:14.999Z,6.20
2019-03-29T00:49:53.525Z,6.20
2019-03-29T00:50:32.933Z,6.20
2019-03-29T00:51:11.248Z,6.20
2019-03-29T00:51:50.938Z,6.20
2019-03-29T00:52:29.589Z,6.20
2019-03-29T00:53:09.016Z,6.20
2019-03-29T00:53:47.816Z,6.20
2019-03-29T00:54:26.101Z,6.20
2019-03-29T00:55:04.047Z,6.20
2019-03-29T00:55:42.570Z,6.20
2019-03-29T00:56:21.210Z,6.20
2019-03-29T00:56:59.660Z,6.20
2019-03-29T00:57:37.976Z,6.20
2019-03-29T00:58:16.272Z,6.20
2019-03-29T00:58:54.336Z,6.20
2019-03-29T00:59:32.598Z,6.20
2019-03-29T01:00:11.224Z,6.20
2019-03-29T01:00:49.524Z,6.20
2019-03-29T01:01:30.891Z,6.20
2019-03-29T01:02:09.512Z,6.20
2019-03-29T01:02:47.984Z,6.20
2019-03-29T01:03:25.956Z,6.20
2019-03-29T01:04:03.930Z,6.10
2019-03-29T01:04:42.253Z,6.10
2019-03-29T01:05:20.984Z,6.10
2019-03-29T01:05:59.877Z,6.10
2019-03-29T01:06:39.132Z,6.10
2019-03-29T01:07:17.152Z,6.10
2019-03-29T01:08:07.213Z,6.10
2019-03-29T01:08:34.315Z,6.10
2019-03-29T01:09:12.632Z,6.10
2019-03-29T01:09:50.565Z,6.10
2019-03-29T01:10:28.929Z,6.10
2019-03-29T01:11:07.108Z,6.10
2019-03-29T01:11:45.048Z,6.10
2019-03-29T01:12:22.678Z,6.10
2019-03-29T01:13:01.236Z,6.10
2019-03-29T01:13:38.940Z,6.10
2019-03-29T01:14:16.940Z,6.10
2019-03-29T01:14:55.194Z,6.10
2019-03-29T01:15:33.529Z,6.10
2019-03-29T01:16:11.873Z,6.10
2019-03-29T01:16:50.193Z,6.10
2019-03-29T01:17:28.076Z,6.10
2019-03-29T01:18:06.390Z,6.10
2019-03-29T01:18:44.686Z,6.10
2019-03-29T01:19:22.856Z,6.10
2019-03-29T01:20:00.873Z,6.00
2019-03-29T01:20:39.504Z,6.10
2019-03-29T01:21:17.058Z,6.10
2019-03-29T01:21:54.964Z,6.00
2019-03-29T01:22:33.225Z,6.00
2019-03-29T01:23:11.966Z,6.00
2019-03-29T01:23:50.280Z,6.00
2019-03-29T01:24:28.352Z,6.00
2019-03-29T01:25:08.093Z,6.00
2019-03-29T01:25:46.448Z,6.00
2019-03-29T01:26:24.744Z,6.00
2019-03-29T01:27:03.284Z,6.00
2019-03-29T01:27:41.372Z,6.00
2019-03-29T01:28:38.673Z,6.00
2019-03-29T01:29:16.746Z,6.00
2019-03-29T01:29:55.104Z,6.00
2019-03-29T01:30:33.147Z,6.00
2019-03-29T01:31:11.392Z,6.00
2019-03-29T01:31:49.913Z,6.00
2019-03-29T01:32:28.192Z,6.00
2019-03-29T01:33:06.829Z,6.00
2019-03-29T01:33:44.789Z,6.00
2019-03-29T01:34:22.429Z,6.00
2019-03-29T01:35:00.339Z,6.00
2019-03-29T01:35:39.112Z,6.00
2019-03-29T01:36:17.688Z,6.00
2019-03-29T01:36:55.565Z,5.90
2019-03-29T01:37:33.552Z,5.90
2019-03-29T01:38:21.802Z,5.90
2019-03-29T01:38:51.707Z,5.90
2019-03-29T01:39:29.997Z,5.90
2019-03-29T01:40:09.387Z,5.90
2019-03-29T01:40:47.933Z,5.90
2019-03-29T01:41:26.942Z,5.90
2019-03-29T01:42:05.859Z,5.90
2019-03-29T01:42:45.083Z,5.90
2019-03-29T01:43:23.557Z,5.90
2019-03-29T01:44:02.022Z,5.90
2019-03-29T01:44:40.665Z,5.90
2019-03-29T01:45:19.344Z,5.90
2019-03-29T01:45:58.304Z,5.90
2019-03-29T01:46:37.923Z,5.90
2019-03-29T01:47:16.006Z,5.90
2019-03-29T01:47:53.983Z,5.90
2019-03-29T01:48:31.885Z,5.90
2019-03-29T01:49:10.185Z,5.90
2019-03-29T01:49:47.769Z,5.90
2019-03-29T01:50:25.811Z,5.90
2019-03-29T01:51:04.166Z,5.90
2019-03-29T01:51:42.383Z,5.80
2019-03-29T01:52:20.026Z,5.80
2019-03-29T01:52:58.052Z,5.80
2019-03-29T01:53:35.931Z,5.80
2019-03-29T01:54:14.210Z,5.80
2019-03-29T01:54:52.451Z,5.80
2019-03-29T01:55:30.810Z,5.80
2019-03-29T01:56:08.805Z,5.80
2019-03-29T01:56:46.788Z,5.80
2019-03-29T01:57:25.012Z,5.80
2019-03-29T01:58:03.588Z,5.90
2019-03-29T01:58:41.231Z,5.80
2019-03-29T01:59:19.703Z,5.80
2019-03-29T01:59:58.227Z,5.80
2019-03-29T02:00:37.110Z,5.80
2019-03-29T02:01:15.619Z,5.80
2019-03-29T02:01:53.307Z,5.80
2019-03-29T02:02:31.334Z,5.80
2019-03-29T02:03:09.377Z,5.80
2019-03-29T02:03:47.279Z,5.80
2019-03-29T02:04:25.779Z,5.80
2019-03-29T02:05:03.771Z,5.80
2019-03-29T02:05:42.084Z,5.80
2019-03-29T02:06:20.572Z,5.80
2019-03-29T02:06:59.083Z,5.80
2019-03-29T02:07:38.203Z,5.80
2019-03-29T02:08:16.918Z,5.80
2019-03-29T02:08:55.175Z,5.80
2019-03-29T02:09:33.587Z,5.80
2019-03-29T02:10:11.859Z,5.80
2019-03-29T02:10:50.231Z,5.80
2019-03-29T02:11:28.526Z,5.80
2019-03-29T02:12:07.071Z,5.80
2019-03-29T02:12:45.259Z,5.80
2019-03-29T02:13:23.573Z,5.80
2019-03-29T02:14:01.819Z,5.80
2019-03-29T02:14:39.861Z,5.80
2019-03-29T02:15:18.171Z,5.80
2019-03-29T02:15:56.565Z,5.80
2019-03-29T02:16:34.865Z,5.70
2019-03-29T02:17:12.849Z,5.80
2019-03-29T02:17:50.829Z,5.70
2019-03-29T02:18:29.134Z,5.70
2019-03-29T02:19:07.269Z,5.70
2019-03-29T02:19:45.547Z,5.70
2019-03-29T02:20:23.908Z,5.70
2019-03-29T02:21:02.089Z,5.70
2019-03-29T02:21:39.705Z,5.70
2019-03-29T02:22:18.219Z,5.70
2019-03-29T02:22:55.881Z,5.70
2019-03-29T02:23:33.535Z,5.70
2019-03-29T02:24:12.019Z,5.70
2019-03-29T02:24:50.341Z,5.70
2019-03-29T02:25:28.465Z,5.70
2019-03-29T02:26:07.001Z,5.70
2019-03-29T02:26:45.339Z,5.70
2019-03-29T02:27:23.720Z,5.70
2019-03-29T02:28:01.897Z,5.70
2019-03-29T02:28:40.536Z,5.70
2019-03-29T02:29:18.697Z,5.70
2019-03-29T02:29:55.939Z,5.70
2019-03-29T02:30:33.926Z,5.70
2019-03-29T02:31:12.208Z,5.70
2019-03-29T02:31:50.588Z,5.70
2019-03-29T02:32:29.216Z,5.70
2019-03-29T02:33:06.520Z,5.70
2019-03-29T02:33:44.787Z,5.70
2019-03-29T02:34:23.102Z,5.70
2019-03-29T02:35:01.128Z,5.70
2019-03-29T02:35:39.344Z,5.70
2019-03-29T02:36:17.644Z,5.70
2019-03-29T02:36:55.893Z,5.60
2019-03-29T02:37:33.878Z,5.60
2019-03-29T02:38:11.894Z,5.60
2019-03-29T02:38:55.447Z,5.60
2019-03-29T02:39:30.102Z,5.60
2019-03-29T02:40:08.914Z,5.60
2019-03-29T02:40:47.488Z,5.60
2019-03-29T02:41:26.072Z,5.60
2019-03-29T02:42:03.636Z,5.60
2019-03-29T02:42:42.911Z,5.60
2019-03-29T02:43:21.647Z,5.60
2019-03-29T02:44:00.158Z,5.60
2019-03-29T02:44:38.528Z,5.60
2019-03-29T02:45:17.002Z,5.60
2019-03-29T02:45:55.023Z,5.60
2019-03-29T02:46:33.228Z,5.60
2019-03-29T02:47:11.514Z,5.60
2019-03-29T02:47:49.742Z,5.60
2019-03-29T02:48:28.316Z,5.60
2019-03-29T02:49:06.921Z,5.60
2019-03-29T02:49:46.744Z,5.60
2019-03-29T02:50:25.359Z,5.50
2019-03-29T02:51:04.860Z,5.50
2019-03-29T02:51:43.497Z,5.50
2019-03-29T02:52:22.005Z,5.50
2019-03-29T02:53:00.229Z,5.50
2019-03-29T02:53:38.523Z,5.50
2019-03-29T02:54:16.580Z,5.50
2019-03-29T02:54:54.875Z,5.50
2019-03-29T02:55:33.178Z,5.50
2019-03-29T02:56:11.400Z,5.50
2019-03-29T02:56:49.963Z,5.50
2019-03-29T02:57:28.225Z,5.50
2019-03-29T02:58:05.958Z,5.50
2019-03-29T02:58:44.213Z,5.50
2019-03-29T02:59:22.520Z,5.50
2019-03-29T03:00:00.784Z,5.50
2019-03-29T03:00:39.483Z,5.50
2019-03-29T03:01:17.972Z,5.50
2019-03-29T03:01:56.226Z,5.50
2019-03-29T03:02:34.919Z,5.50
2019-03-29T03:03:13.284Z,5.50
2019-03-29T03:03:51.938Z,5.50
2019-03-29T03:04:30.167Z,5.50
2019-03-29T03:05:09.122Z,5.50
2019-03-29T03:05:47.124Z,5.50
2019-03-29T03:06:25.495Z,5.40
2019-03-29T03:07:03.833Z,5.40
2019-03-29T03:07:42.466Z,5.40
2019-03-29T03:08:20.448Z,5.40
2019-03-29T03:09:12.378Z,5.40
2019-03-29T03:09:38.951Z,5.40
2019-03-29T03:10:16.795Z,5.40
2019-03-29T03:10:55.428Z,5.40
2019-03-29T03:11:33.726Z,5.40
2019-03-29T03:12:11.950Z,5.40
2019-03-29T03:12:49.916Z,5.40
2019-03-29T03:13:28.473Z,5.40
2019-03-29T03:14:06.677Z,5.40
2019-03-29T03:14:45.171Z,5.40
2019-03-29T03:15:22.462Z,5.30
2019-03-29T03:16:00.447Z,5.30
2019-03-29T03:16:38.541Z,5.40
2019-03-29T03:17:16.632Z,5.40
2019-03-29T03:17:55.077Z,5.40
2019-03-29T03:18:33.604Z,5.40
2019-03-29T03:19:12.200Z,5.40
2019-03-29T03:19:50.437Z,5.40
2019-03-29T03:20:28.435Z,5.40
2019-03-29T03:21:06.142Z,5.40
2019-03-29T03:21:44.633Z,5.40
2019-03-29T03:22:22.301Z,5.40
2019-03-29T03:23:00.688Z,5.40
2019-03-29T03:23:39.019Z,5.40
2019-03-29T03:24:17.348Z,5.40
2019-03-29T03:24:54.980Z,5.40
2019-03-29T03:25:33.526Z,5.40
2019-03-29T03:26:11.189Z,5.40
2019-03-29T03:26:50.228Z,5.40
2019-03-29T03:27:28.841Z,5.50
2019-03-29T03:28:06.656Z,5.50
2019-03-29T03:28:44.832Z,5.50
2019-03-29T03:29:23.177Z,5.50
2019-03-29T03:30:00.850Z,5.50
2019-03-29T03:30:39.487Z,5.50
2019-03-29T03:31:17.778Z,5.50
2019-03-29T03:31:55.777Z,5.50
2019-03-29T03:32:33.425Z,5.60
2019-03-29T03:33:11.430Z,5.60
2019-03-29T03:33:49.736Z,5.60
2019-03-29T03:34:27.768Z,5.60
2019-03-29T03:35:06.252Z,5.60
2019-03-29T03:35:44.205Z,5.60
2019-03-29T03:36:22.188Z,5.60
2019-03-29T03:37:00.439Z,5.70
2019-03-29T03:37:38.575Z,5.70
2019-03-29T03:38:16.781Z,5.70
2019-03-29T03:38:55.164Z,5.70
2019-03-29T03:39:33.478Z,5.70
2019-03-29T03:40:12.204Z,5.70
2019-03-29T03:40:50.173Z,5.80
2019-03-29T03:41:28.672Z,5.80
2019-03-29T03:42:06.964Z,5.80
2019-03-29T03:42:45.680Z,5.80
2019-03-29T03:43:23.903Z,5.80
2019-03-29T03:44:02.694Z,5.80
2019-03-29T03:44:41.087Z,5.80
2019-03-29T03:45:19.386Z,5.80
2019-03-29T03:45:57.691Z,5.90
2019-03-29T03:46:36.090Z,5.90
2019-03-29T03:47:14.377Z,5.90
2019-03-29T03:47:52.701Z,5.90
2019-03-29T03:48:30.308Z,5.90
2019-03-29T03:49:08.923Z,5.90
2019-03-29T03:49:47.527Z,5.90
2019-03-29T03:50:41.777Z,5.90
2019-03-29T03:51:19.833Z,6.00
2019-03-29T03:51:58.541Z,6.00
2019-03-29T03:52:36.758Z,6.00
2019-03-29T03:53:15.981Z,6.00
2019-03-29T03:53:53.706Z,6.00
2019-03-29T03:54:32.309Z,6.00
2019-03-29T03:55:10.668Z,6.00
2019-03-29T03:55:49.265Z,6.00
2019-03-29T03:56:28.572Z,6.00
2019-03-29T03:57:07.788Z,6.00
2019-03-29T03:57:45.911Z,6.00
2019-03-29T03:58:25.403Z,6.10
2019-03-29T03:59:04.451Z,6.10
2019-03-29T03:59:44.089Z,6.10
2019-03-29T04:00:25.591Z,6.10
2019-03-29T04:01:03.934Z,6.10
2019-03-29T04:01:42.372Z,6.10
2019-03-29T04:02:20.317Z,6.10
2019-03-29T04:02:57.890Z,6.10
2019-03-29T04:03:36.457Z,6.10
2019-03-29T04:04:14.722Z,6.10
2019-03-29T04:04:52.999Z,6.10
2019-03-29T04:05:31.109Z,6.10
2019-03-29T04:06:09.490Z,6.10
2019-03-29T04:06:47.713Z,6.10
2019-03-29T04:07:25.623Z,6.10
2019-03-29T04:08:03.968Z,6.10
2019-03-29T04:08:43.835Z,6.10
2019-03-29T04:09:22.177Z,6.10
2019-03-29T04:10:00.717Z,6.10
2019-03-29T04:10:42.204Z,6.20
2019-03-29T04:11:19.260Z,6.20
2019-03-29T04:11:57.814Z,6.20
2019-03-29T04:12:36.407Z,6.20
2019-03-29T04:13:14.076Z,6.20
2019-03-29T04:13:52.680Z,6.20
2019-03-29T04:14:30.929Z,6.20
2019-03-29T04:15:09.507Z,6.20
2019-03-29T04:15:48.053Z,6.20
2019-03-29T04:16:26.257Z,6.20
2019-03-29T04:17:03.828Z,6.20
2019-03-29T04:17:42.052Z,6.30
2019-03-29T04:18:20.867Z,6.30
2019-03-29T04:18:59.180Z,6.30
2019-03-29T04:19:37.458Z,6.30
2019-03-29T04:20:15.739Z,6.30
2019-03-29T04:20:53.824Z,6.30
2019-03-29T04:21:32.404Z,6.30
2019-03-29T04:22:10.975Z,6.30
2019-03-29T04:22:49.225Z,6.30
2019-03-29T04:23:27.114Z,6.40
2019-03-29T04:24:05.423Z,6.40
2019-03-29T04:24:43.812Z,6.40
2019-03-29T04:25:21.700Z,6.40
2019-03-29T04:26:00.253Z,6.30
2019-03-29T04:26:37.894Z,6.40
2019-03-29T04:27:16.143Z,6.40
2019-03-29T04:27:54.486Z,6.40
2019-03-29T04:28:33.241Z,6.40
2019-03-29T04:29:11.553Z,6.40
2019-03-29T04:29:49.423Z,6.40
2019-03-29T04:30:27.005Z,6.40
2019-03-29T04:31:05.380Z,6.40
2019-03-29T04:31:43.697Z,6.40
2019-03-29T04:32:21.985Z,6.40
2019-03-29T04:33:00.280Z,6.40
2019-03-29T04:33:38.773Z,6.40
2019-03-29T04:34:16.751Z,6.50
2019-03-29T04:34:54.664Z,6.50
2019-03-29T04:35:33.237Z,6.50
2019-03-29T04:36:11.840Z,6.50
2019-03-29T04:36:49.479Z,6.50
2019-03-29T04:37:27.968Z,6.50
2019-03-29T04:38:06.429Z,6.50
2019-03-29T04:38:44.473Z,6.50
2019-03-29T04:39:22.469Z,6.50
2019-03-29T04:40:07.992Z,6.50
2019-03-29T04:40:40.558Z,6.50
2019-03-29T04:41:18.836Z,6.50
2019-03-29T04:42:04.970Z,6.50
2019-03-29T04:42:45.920Z,6.50
2019-03-29T04:43:32.120Z,6.50
2019-03-29T04:44:10.464Z,6.50
2019-03-29T04:44:48.152Z,6.50
2019-03-29T04:45:26.294Z,6.50
2019-03-29T04:46:04.335Z,6.50
2019-03-29T04:46:42.328Z,6.50
2019-03-29T04:47:20.679Z,6.50
2019-03-29T04:47:58.721Z,6.50
2019-03-29T04:48:37.012Z,6.50
2019-03-29T04:49:15.336Z,6.50
2019-03-29T04:50:01.958Z,6.60
2019-03-29T04:50:39.591Z,6.60
2019-03-29T04:51:17.805Z,6.60
2019-03-29T04:51:56.058Z,6.60
2019-03-29T04:52:34.729Z,6.60
2019-03-29T04:53:13.317Z,6.60
2019-03-29T04:53:51.998Z,6.60
2019-03-29T04:54:30.243Z,6.60
2019-03-29T04:55:08.926Z,6.60
2019-03-29T04:55:47.364Z,6.60
2019-03-29T04:56:25.406Z,6.60
2019-03-29T04:57:03.928Z,6.60
2019-03-29T04:57:42.392Z,6.60
2019-03-29T04:58:20.605Z,6.60
2019-03-29T04:58:58.898Z,6.60
2019-03-29T04:59:37.494Z,6.60
2019-03-29T05:00:15.667Z,6.60
2019-03-29T05:00:54.466Z,6.60
2019-03-29T05:01:32.492Z,6.60
2019-03-29T05:02:10.710Z,6.60
2019-03-29T05:02:48.888Z,6.60
2019-03-29T05:03:27.442Z,6.60
2019-03-29T05:04:05.798Z,6.60
2019-03-29T05:04:44.188Z,6.70
2019-03-29T05:05:22.367Z,6.70
2019-03-29T05:06:00.910Z,6.60
2019-03-29T05:06:39.498Z,6.70
2019-03-29T05:07:17.785Z,6.70
2019-03-29T05:07:56.319Z,6.60
2019-03-29T05:08:34.284Z,6.70
2019-03-29T05:09:12.526Z,6.70
2019-03-29T05:09:51.025Z,6.70
2019-03-29T05:10:29.544Z,6.70
2019-03-29T05:11:07.856Z,6.70
2019-03-29T05:11:46.132Z,6.70
2019-03-29T05:12:24.122Z,6.70
2019-03-29T05:13:02.816Z,6.70
2019-03-29T05:13:41.096Z,6.70
2019-03-29T05:14:19.182Z,6.70
2019-03-29T05:14:57.588Z,6.70
2019-03-29T05:15:35.964Z,6.70
2019-03-29T05:16:14.366Z,6.70
2019-03-29T05:16:52.026Z,6.60
2019-03-29T05:17:29.858Z,6.70
2019-03-29T05:18:08.177Z,6.70
2019-03-29T05:18:45.958Z,6.70
2019-03-29T05:19:27.949Z,6.70
2019-03-29T05:20:06.349Z,6.70
2019-03-29T05:20:44.386Z,6.70
2019-03-29T05:21:22.388Z,6.70
2019-03-29T05:22:00.697Z,6.70
2019-03-29T05:22:38.974Z,6.70
2019-03-29T05:23:16.987Z,6.70
2019-03-29T05:23:55.603Z,6.80
2019-03-29T05:24:33.684Z,6.80
2019-03-29T05:25:11.829Z,6.80
2019-03-29T05:25:49.884Z,6.80
2019-03-29T05:26:28.162Z,6.80
2019-03-29T05:27:06.738Z,6.80
2019-03-29T05:27:45.100Z,6.90
2019-03-29T05:28:23.608Z,6.90
2019-03-29T05:29:02.012Z,6.90
2019-03-29T05:29:40.530Z,6.90
2019-03-29T05:30:18.563Z,6.90
2019-03-29T05:30:57.094Z,6.90
2019-03-29T05:31:35.349Z,6.90
2019-03-29T05:32:13.664Z,7.00
2019-03-29T05:32:52.177Z,7.00
2019-03-29T05:33:30.500Z,7.00
2019-03-29T05:34:08.556Z,7.00
2019-03-29T05:34:47.110Z,7.00
2019-03-29T05:35:25.358Z,7.10
2019-03-29T05:36:04.014Z,7.10
2019-03-29T05:36:42.196Z,7.10
2019-03-29T05:37:20.672Z,7.10
2019-03-29T05:37:59.338Z,7.10
2019-03-29T05:38:38.192Z,7.20
2019-03-29T05:39:16.060Z,7.20
2019-03-29T05:39:54.073Z,7.20
2019-03-29T05:40:35.216Z,7.20
2019-03-29T05:41:11.921Z,7.20
2019-03-29T05:41:49.868Z,7.20
2019-03-29T05:42:28.038Z,7.30
2019-03-29T05:43:06.425Z,7.30
2019-03-29T05:43:44.372Z,7.30
2019-03-29T05:44:22.260Z,7.30
2019-03-29T05:45:00.508Z,7.30
2019-03-29T05:45:38.832Z,7.30
2019-03-29T05:46:17.023Z,7.30
2019-03-29T05:46:59.524Z,7.40
2019-03-29T05:47:38.083Z,7.40
2019-03-29T05:48:16.894Z,7.40
2019-03-29T05:48:55.509Z,7.40
2019-03-29T05:49:34.164Z,7.40
2019-03-29T05:50:15.636Z,7.50
2019-03-29T05:50:53.502Z,7.50
2019-03-29T05:51:31.174Z,7.50
2019-03-29T05:52:09.518Z,7.50
2019-03-29T05:52:47.714Z,7.50
2019-03-29T05:53:26.066Z,7.60
2019-03-29T05:54:03.901Z,7.60
2019-03-29T05:54:41.908Z,7.60
2019-03-29T05:55:32.097Z,7.60
2019-03-29T05:56:06.649Z,7.60
2019-03-29T05:56:45.287Z,7.60
2019-03-29T05:57:23.442Z,7.60
2019-03-29T05:58:01.435Z,7.60
2019-03-29T05:58:39.408Z,7.60
2019-03-29T05:59:20.209Z,7.60
2019-03-29T05:59:58.197Z,7.70
2019-03-29T06:00:36.416Z,7.70
2019-03-29T06:01:14.440Z,7.70
2019-03-29T06:01:52.680Z,7.70
2019-03-29T06:02:30.976Z,7.70
2019-03-29T06:03:10.166Z,7.70
2019-03-29T06:03:48.722Z,7.70
2019-03-29T06:04:27.332Z,7.70
2019-03-29T06:05:06.013Z,7.70
2019-03-29T06:05:44.236Z,7.80
2019-03-29T06:06:22.206Z,7.80
2019-03-29T06:07:00.736Z,7.80
2019-03-29T06:07:39.244Z,7.80
2019-03-29T06:08:16.911Z,7.80
2019-03-29T06:08:55.218Z,7.80
2019-03-29T06:09:34.975Z,7.80
2019-03-29T06:10:13.404Z,7.80
2019-03-29T06:10:52.153Z,7.90
2019-03-29T06:11:30.350Z,7.90
2019-03-29T06:12:08.418Z,7.90
2019-03-29T06:12:46.408Z,7.90
2019-03-29T06:13:25.290Z,7.90
2019-03-29T06:14:02.575Z,7.90
2019-03-29T06:14:40.524Z,7.90
2019-03-29T06:15:37.623Z,7.90
2019-03-29T06:16:15.434Z,7.90
2019-03-29T06:16:53.402Z,7.90
2019-03-29T06:17:31.668Z,8.00
2019-03-29T06:18:08.947Z,8.00
2019-03-29T06:18:47.074Z,8.00
2019-03-29T06:19:25.158Z,8.00
2019-03-29T06:20:03.688Z,8.00
2019-03-29T06:20:41.966Z,8.00
2019-03-29T06:21:20.072Z,8.00
2019-03-29T06:21:58.664Z,8.10
2019-03-29T06:22:37.262Z,8.10
2019-03-29T06:23:15.559Z,8.10
2019-03-29T06:23:53.548Z,8.10
2019-03-29T06:24:32.281Z,8.10
2019-03-29T06:25:10.887Z,8.10
2019-03-29T06:25:49.480Z,8.20
2019-03-29T06:26:27.881Z,8.20
2019-03-29T06:27:05.656Z,8.20
2019-03-29T06:27:43.848Z,8.20
2019-03-29T06:28:22.464Z,8.20
2019-03-29T06:29:01.015Z,8.20
2019-03-29T06:29:39.310Z,8.30
2019-03-29T06:30:22.388Z,8.30
2019-03-29T06:31:00.767Z,8.30
2019-03-29T06:31:39.104Z,8.30
2019-03-29T06:32:16.758Z,8.30
2019-03-29T06:32:54.832Z,8.40
2019-03-29T06:33:33.152Z,8.40
2019-03-29T06:34:11.476Z,8.40
2019-03-29T06:34:49.325Z,8.40
2019-03-29T06:35:29.264Z,8.50
2019-03-29T06:36:09.634Z,8.50
2019-03-29T06:36:48.991Z,8.50
2019-03-29T06:37:28.073Z,8.50
2019-03-29T06:38:08.585Z,8.50
2019-03-29T06:38:48.833Z,8.50
2019-03-29T06:39:33.625Z,8.50
2019-03-29T06:40:16.251Z,8.60
2019-03-29T06:41:02.995Z,8.60
2019-03-29T06:41:34.185Z,8.60
2019-03-29T06:42:12.330Z,8.60
2019-03-29T06:42:50.840Z,8.70
2019-03-29T06:43:28.696Z,8.70
2019-03-29T06:44:06.792Z,8.70
2019-03-29T06:44:45.066Z,8.70
2019-03-29T06:45:23.079Z,8.80
2019-03-29T06:46:01.506Z,8.80
2019-03-29T06:46:39.468Z,8.80
2019-03-29T06:47:17.995Z,8.80
2019-03-29T06:47:56.602Z,8.90
2019-03-29T06:48:34.980Z,8.90
2019-03-29T06:49:13.772Z,8.90
2019-03-29T06:50:02.641Z,8.90
2019-03-29T06:50:41.065Z,9.00
2019-03-29T06:51:19.507Z,9.00
2019-03-29T06:51:57.406Z,9.00
2019-03-29T06:52:38.106Z,9.00
2019-03-29T06:53:18.710Z,9.00
2019-03-29T06:53:59.494Z,9.10
2019-03-29T06:54:37.802Z,9.10
2019-03-29T06:55:16.167Z,9.10
2019-03-29T06:55:53.612Z,9.10
2019-03-29T06:56:31.928Z,9.20
2019-03-29T06:57:10.037Z,9.20
2019-03-29T06:57:52.878Z,9.20
2019-03-29T06:58:31.600Z,9.20
2019-03-29T06:59:09.860Z,9.20
2019-03-29T06:59:48.545Z,9.20
2019-03-29T07:00:26.578Z,9.30
2019-03-29T07:01:04.985Z,9.20
2019-03-29T07:01:46.312Z,9.30
2019-03-29T07:02:23.631Z,9.30
2019-03-29T07:03:01.293Z,9.30
2019-03-29T07:03:39.238Z,9.30
2019-03-29T07:04:17.345Z,9.30
2019-03-29T07:04:55.552Z,9.30
2019-03-29T07:05:33.279Z,9.30
2019-03-29T07:06:11.314Z,9.40
2019-03-29T07:06:49.924Z,9.40
2019-03-29T07:07:28.584Z,9.40
2019-03-29T07:08:07.186Z,9.40
2019-03-29T07:08:45.448Z,9.40
2019-03-29T07:09:23.572Z,9.40
2019-03-29T07:10:01.767Z,9.40
2019-03-29T07:10:39.112Z,9.50
2019-03-29T07:11:18.047Z,9.50
2019-03-29T07:11:56.311Z,9.50
2019-03-29T07:12:34.628Z,9.50
2019-03-29T07:13:12.921Z,9.50
2019-03-29T07:13:57.223Z,9.50
2019-03-29T07:14:31.119Z,9.50
2019-03-29T07:15:09.185Z,9.60
2019-03-29T07:15:47.300Z,9.60
2019-03-29T07:16:24.617Z,9.60
2019-03-29T07:17:03.152Z,9.60
2019-03-29T07:17:41.479Z,9.60
2019-03-29T07:18:19.736Z,9.60
2019-03-29T07:18:57.761Z,9.60
2019-03-29T07:19:35.116Z,9.60
2019-03-29T07:20:13.504Z,9.70
2019-03-29T07:20:51.506Z,9.70
2019-03-29T07:21:29.191Z,9.70
2019-03-29T07:22:06.950Z,9.70
2019-03-29T07:22:44.972Z,9.70
2019-03-29T07:23:22.225Z,9.70
2019-03-29T07:24:00.200Z,9.70
2019-03-29T07:24:38.523Z,9.80
2019-03-29T07:25:16.925Z,9.80
2019-03-29T07:25:56.365Z,9.80
2019-03-29T07:26:34.477Z,9.80
2019-03-29T07:27:12.930Z,9.80
2019-03-29T07:27:52.428Z,9.80
2019-03-29T07:28:32.250Z,9.80
2019-03-29T07:29:10.307Z,9.80
2019-03-29T07:29:48.011Z,9.90
2019-03-29T07:30:26.843Z,9.90
2019-03-29T07:31:04.891Z,9.90
2019-03-29T07:31:42.881Z,9.90
2019-03-29T07:32:21.105Z,9.90
2019-03-29T07:32:59.074Z,10.00
2019-03-29T07:33:38.083Z,10.00
2019-03-29T07:34:16.176Z,10.00
2019-03-29T07:34:54.141Z,10.00
2019-03-29T07:35:32.103Z,10.00
2019-03-29T07:36:10.565Z,10.10
2019-03-29T07:36:49.031Z,10.10
2019-03-29T07:37:27.662Z,10.10
2019-03-29T07:38:06.174Z,10.10
2019-03-29T07:38:44.996Z,10.10
2019-03-29T07:39:23.038Z,10.10
2019-03-29T07:40:01.328Z,10.20
2019-03-29T07:40:39.325Z,10.20
2019-03-29T07:41:30.691Z,10.20
2019-03-29T07:41:57.183Z,10.20
2019-03-29T07:42:35.776Z,10.30
2019-03-29T07:43:13.633Z,10.30
2019-03-29T07:43:52.745Z,10.30
2019-03-29T07:44:31.344Z,10.30
2019-03-29T07:45:10.377Z,10.30
2019-03-29T07:45:48.967Z,10.30
2019-03-29T07:46:27.279Z,10.30
2019-03-29T07:47:10.185Z,10.40
2019-03-29T07:47:54.285Z,10.40
2019-03-29T07:48:32.639Z,10.40
2019-03-29T07:49:10.370Z,10.40
2019-03-29T07:49:48.194Z,10.40
2019-03-29T07:50:25.724Z,10.50
2019-03-29T07:51:03.662Z,10.50
2019-03-29T07:51:42.084Z,10.50
2019-03-29T07:52:20.884Z,10.60
2019-03-29T07:52:58.840Z,10.60
2019-03-29T07:53:37.381Z,10.60
2019-03-29T07:54:33.706Z,10.60
2019-03-29T07:55:12.456Z,10.70
2019-03-29T07:55:49.532Z,10.70
2019-03-29T07:56:27.711Z,10.70
2019-03-29T07:57:06.062Z,10.70
2019-03-29T07:57:44.126Z,10.70
2019-03-29T07:58:21.402Z,10.70
2019-03-29T07:58:59.305Z,10.70
2019-03-29T07:59:37.511Z,10.70
2019-03-29T08:00:16.440Z,10.80
2019-03-29T08:00:54.722Z,10.80
2019-03-29T08:01:32.759Z,10.80
2019-03-29T08:02:11.044Z,10.80
2019-03-29T08:02:55.785Z,10.80
2019-03-29T08:03:34.077Z,10.80
2019-03-29T08:04:12.302Z,10.80
2019-03-29T08:04:51.127Z,10.90
2019-03-29T08:05:29.481Z,10.90
2019-03-29T08:06:07.521Z,10.90
2019-03-29T08:06:46.616Z,10.90
2019-03-29T08:07:27.389Z,10.90
2019-03-29T08:08:04.651Z,10.90
2019-03-29T08:08:44.081Z,11.00
2019-03-29T08:09:22.864Z,11.00
2019-03-29T08:10:03.648Z,11.00
2019-03-29T08:10:41.084Z,11.00
2019-03-29T08:11:25.970Z,11.00
2019-03-29T08:11:58.133Z,11.00
2019-03-29T08:12:36.185Z,11.10
2019-03-29T08:13:16.084Z,11.10
2019-03-29T08:13:53.669Z,11.10
2019-03-29T08:14:31.856Z,11.10
2019-03-29T08:15:10.168Z,11.10
2019-03-29T08:15:47.873Z,11.10
2019-03-29T08:16:25.554Z,11.20
2019-03-29T08:17:03.878Z,11.20
2019-03-29T08:17:41.945Z,11.20
2019-03-29T08:18:19.631Z,11.20
2019-03-29T08:18:57.345Z,11.20
2019-03-29T08:19:37.209Z,11.20
2019-03-29T08:20:38.062Z,11.30
2019-03-29T08:20:54.949Z,11.30
2019-03-29T08:21:33.166Z,11.20
2019-03-29T08:22:12.905Z,11.30
2019-03-29T08:22:51.217Z,11.30
2019-03-29T08:23:29.543Z,11.30
2019-03-29T08:24:06.977Z,11.30
2019-03-29T08:24:44.365Z,11.30
2019-03-29T08:25:23.001Z,11.40
2019-03-29T08:26:01.301Z,11.40
2019-03-29T08:26:39.341Z,11.40
2019-03-29T08:27:16.663Z,11.40
2019-03-29T08:27:54.015Z,11.40
2019-03-29T08:28:31.725Z,11.40
2019-03-29T08:29:10.112Z,11.40
2019-03-29T08:29:48.538Z,11.40
2019-03-29T08:30:26.653Z,11.40
2019-03-29T08:31:03.696Z,11.40
2019-03-29T08:31:41.431Z,11.40